Terminal Aerodrome Forecast
Issued by NWS

Home | Current Version | Previous Version | Text Only | Print | Product List | Glossary On
Versions: 1 2 3 4 5 6 7 8 9 10 11 12 13
000
FTUS43 KLSX 310520
TAFUIN
TAF
KUIN 310520Z 3106/0106 VRB03KT 6SM BR SKC
     FM310700 VRB02KT 3SM BR SKC
     FM310900 VRB02KT 1SM BR BKN005
     FM311400 17006KT 4SM BR BKN005
     FM311600 18007KT P6SM SCT040
     FM010100 16005KT P6SM SCT250=

USA.gov is the U.S. government's official web portal to all federal, state and local government web resources and services.